Terminal Aerodrome Forecast
Issued by NWS Tulsa, OK

Home | Current Version | Previous Version | Text Only | Print | Product List | Glossary On
Versions: 1 2 3 4 5 6 7 8 9 10 11 12 13 14
768
FTUS44 KTSA 220520
TAFFSM
TAF
KFSM 220520Z 2206/2306 VRB04KT P6SM SCT250
     FM221500 25005KT P6SM SCT050 BKN250
     FM221800 27008KT P6SM SCT050 BKN150
      TEMPO 2223/2303 4SM TSRA BKN040CB=

USA.gov is the U.S. government's official web portal to all federal, state and local government web resources and services.